Accueil
METAR-TAF:

METAR-TAF

Aéroports :

Base aérienne de Grosseto

Grosseto, Italie

latitude: 42-45N, longitude: 011-04E, altitude: 5 m

Observation

Le bulletin a été fait il y a 1 heure et 2 minutes, à 21:55 UTC
Vent 4 kt de nord
Température 4°C
Humidité 81%
Pression 1005 hPa
Visibilité 10 km ou plus
pas de nuages en-dessous de 1500 mètres et pas de cumulonimbus.

METAR: LIRS 032155Z 35004KT CAVOK 04/01 Q1005 RMK SKC VIS MIN 9999 WIND

Heure: 23:57 (22:57 UTC)

Prévision

Le bulletin a été fait il y a 2 heures et 57 minutes, à 20:00 UTC
Prévision valable du 03 à 21 UTC au 04 à 06 UTC
Vent 6 kt de nord-est
Visibilité 10 km ou plus
Nuages épars à une hauteur de 2500 ft
Probabilité 40% :
Temporairement
du 04 à 00 UTC au 04 à 05 UTC
Visibilité: 5000 m
brume

TAF: LIRS 032000Z 0321/0406 05006KT 9999 SCT025 PROB40 TEMPO 0400/0405 5000 BR

Observations et prévisions météorologiques de plus de 4000 aéroports (messages METAR et TAF).

Les stations disponibles sont représentées par des disques jaunes et rouges sur la carte.

Passer la souris dessus pour voir le nom de la station.

Cliquer dessus pour voir les observations et prévisions météorologiques.

Pour changer de carte: cliquez sur les boutons verts avec une croix noire pour zoomer, sur le bouton vert avec un tiret pour effectuer un zoom arrière, ou sur les flèches vertes pour les cartes adjacentes.


METAR-TAF: